Shoshone, Idaho
Current Conditions -  °F | °C
As of 12:53 PM on Friday 24 Oct 2014 (Local Time) from KJER Reporting Station
Clear Clear  
Wind Chill: 66°   Ceiling: Unl
Heat Index: 66°   Visibility: 10mi
Dew Point: 35°   Wind: 0mph
Humidity: 32%   Direction: NA
Pressure: 30.1"   Gusts: NA
Location:  42.94°N, 114.41°W
Report Text: KJER 241853Z AUTO 00000KT 10SM CLR 19/02 A3010 RMK AO2 SLP173 T01890017
Loading
Personal Weather Stations






























Interactive Weather Map
Tropical Storm Tracking
New forecast layout! Learn more

10-Day Weather Forecast

Advertisements
Track Severe Weather on mobile